createdAt,value
2023-02-11T00:02:47.893Z,57.20
2023-02-11T00:07:50.179Z,57.40
2023-02-11T00:12:52.204Z,57.52
2023-02-11T00:17:54.305Z,57.64
2023-02-11T00:22:56.419Z,57.79
2023-02-11T00:27:59.113Z,57.47
2023-02-11T00:33:01.202Z,58.17
2023-02-11T00:38:03.214Z,57.92
2023-02-11T00:43:06.693Z,58.95
2023-02-11T00:48:08.714Z,58.82
2023-02-11T00:53:11.101Z,58.82
2023-02-11T00:58:13.939Z,58.85
2023-02-11T01:03:17.635Z,58.44
2023-02-11T01:08:19.977Z,58.71
2023-02-11T01:13:22.801Z,59.35
2023-02-11T01:18:25.684Z,59.55
2023-02-11T01:23:27.721Z,59.65
2023-02-11T01:28:31.200Z,59.40
2023-02-11T01:33:35.310Z,59.30
2023-02-11T01:38:38.118Z,58.86
2023-02-11T01:43:47.480Z,59.59
2023-02-11T01:49:20.444Z,58.98
2023-02-11T01:54:48.298Z,58.94
2023-02-11T02:00:06.179Z,59.06
2023-02-11T02:05:42.438Z,58.97
2023-02-11T02:10:47.236Z,59.41
2023-02-11T02:15:59.614Z,58.76
2023-02-11T02:21:20.462Z,58.48
2023-02-11T02:27:00.698Z,57.58
2023-02-11T02:32:36.605Z,57.97
2023-02-11T02:38:04.353Z,57.40
2023-02-11T02:43:09.569Z,56.44
2023-02-11T02:48:29.968Z,56.70
2023-02-11T02:53:55.151Z,56.41
2023-02-11T02:59:17.361Z,56.14
2023-02-11T03:04:29.850Z,56.20
2023-02-11T03:09:55.991Z,56.30
2023-02-11T03:14:59.898Z,56.31
2023-02-11T03:20:04.440Z,55.78
2023-02-11T03:25:07.288Z,55.95
2023-02-11T03:30:41.795Z,56.26
2023-02-11T03:35:54.241Z,56.79
2023-02-11T03:40:58.022Z,57.09
2023-02-11T03:46:01.779Z,57.29
2023-02-11T03:51:07.352Z,57.37
2023-02-11T03:56:14.850Z,57.17
2023-02-11T04:01:17.281Z,57.32
2023-02-11T04:06:19.304Z,56.99
2023-02-11T04:11:21.317Z,56.94
2023-02-11T04:16:23.538Z,56.80
2023-02-11T04:21:25.640Z,56.82
2023-02-11T04:26:27.676Z,56.56
2023-02-11T04:31:29.769Z,56.87
2023-02-11T04:36:31.887Z,57.15
2023-02-11T04:41:34.242Z,57.52
2023-02-11T04:46:36.242Z,57.80
2023-02-11T04:51:38.462Z,57.30
2023-02-11T04:56:40.488Z,57.70
2023-02-11T05:01:43.091Z,58.33
2023-02-11T05:06:45.151Z,57.59
2023-02-11T05:11:47.237Z,57.78
2023-02-11T05:16:49.338Z,57.84
2023-02-11T05:22:02.119Z,58.14
2023-02-11T05:27:04.904Z,57.69
2023-02-11T05:32:09.061Z,58.00
2023-02-11T05:37:11.115Z,57.59
2023-02-11T05:42:14.136Z,57.48
2023-02-11T05:47:16.107Z,56.98
2023-02-11T05:52:18.088Z,57.36
2023-02-11T05:57:20.212Z,57.05
2023-02-11T06:02:23.218Z,56.35
2023-02-11T06:07:25.289Z,56.02
2023-02-11T06:12:27.377Z,55.82
2023-02-11T06:17:33.718Z,55.67
2023-02-11T06:22:35.799Z,55.57
2023-02-11T06:27:38.376Z,55.60
2023-02-11T06:32:44.509Z,55.60
2023-02-11T06:37:48.102Z,55.63
2023-02-11T06:42:50.179Z,55.23
2023-02-11T06:47:54.014Z,55.14
2023-02-11T06:52:56.006Z,55.02
2023-02-11T06:57:58.053Z,54.23
2023-02-11T07:03:01.109Z,53.99
2023-02-11T07:08:03.201Z,53.15
2023-02-11T07:13:05.393Z,52.98
2023-02-11T07:18:07.483Z,53.00
2023-02-11T07:23:09.670Z,51.94
2023-02-11T07:28:11.984Z,51.25
2023-02-11T07:33:14.009Z,49.13
2023-02-11T07:38:16.038Z,44.13
2023-02-11T07:43:17.878Z,46.60
2023-02-11T07:48:19.865Z,41.13
2023-02-11T07:53:21.931Z,41.56
2023-02-11T07:58:23.939Z,39.55
2023-02-11T08:03:25.808Z,44.58
2023-02-11T08:08:28.131Z,38.84
2023-02-11T08:13:30.227Z,37.44
2023-02-11T08:18:33.456Z,36.77
2023-02-11T08:23:40.269Z,40.01
2023-02-11T08:28:44.013Z,40.33
2023-02-11T08:33:46.336Z,39.19
2023-02-11T08:38:48.401Z,39.62
2023-02-11T08:43:50.426Z,41.24
2023-02-11T08:48:52.953Z,43.07
2023-02-11T08:53:55.499Z,43.94
2023-02-11T08:58:57.713Z,45.51
2023-02-11T09:03:59.853Z,46.87
2023-02-11T09:09:01.891Z,47.33
2023-02-11T09:14:04.732Z,47.81
2023-02-11T09:19:06.804Z,48.23
2023-02-11T09:24:08.961Z,48.06
2023-02-11T09:29:11.201Z,48.26
2023-02-11T09:34:13.522Z,48.98
2023-02-11T09:39:20.604Z,49.75
2023-02-11T09:44:26.445Z,50.31
2023-02-11T09:49:44.106Z,49.94
2023-02-11T09:54:55.751Z,50.91
2023-02-11T09:59:58.107Z,51.53
2023-02-11T10:05:35.494Z,51.06
2023-02-11T10:11:04.350Z,51.74
2023-02-11T10:16:17.171Z,52.10
2023-02-11T10:21:41.666Z,52.74
2023-02-11T10:26:45.684Z,53.12
2023-02-11T10:31:49.995Z,53.54
2023-02-11T10:36:52.069Z,54.17
2023-02-11T10:42:03.228Z,53.79
2023-02-11T10:47:22.868Z,53.36
2023-02-11T10:52:27.257Z,53.71
2023-02-11T10:57:31.889Z,53.67
2023-02-11T11:02:38.887Z,53.93
2023-02-11T11:07:59.461Z,53.44
2023-02-11T11:13:01.747Z,53.16
2023-02-11T11:18:23.020Z,52.94
2023-02-11T11:23:26.132Z,52.48
2023-02-11T11:28:31.649Z,52.77
2023-02-11T11:33:35.890Z,52.59
2023-02-11T11:38:45.918Z,52.46
2023-02-11T11:44:15.533Z,52.00
2023-02-11T11:49:43.634Z,51.98
2023-02-11T11:54:56.405Z,51.37
2023-02-11T11:59:58.733Z,51.78
2023-02-11T12:05:29.928Z,51.88
2023-02-11T12:10:37.723Z,51.21
2023-02-11T12:16:14.463Z,51.03
2023-02-11T12:21:33.478Z,51.34
2023-02-11T12:26:59.998Z,51.20
2023-02-11T12:32:14.238Z,51.21
2023-02-11T12:37:21.181Z,50.90
2023-02-11T12:42:50.663Z,51.37
2023-02-11T12:48:05.695Z,51.61
2023-02-11T12:53:22.940Z,51.64
2023-02-11T12:58:44.187Z,51.54
2023-02-11T13:04:00.298Z,51.88
2023-02-11T13:09:06.367Z,52.41
2023-02-11T13:14:38.001Z,52.71
2023-02-11T13:19:53.446Z,53.48
2023-02-11T13:25:07.496Z,53.41
2023-02-11T13:30:28.188Z,53.53
2023-02-11T13:35:37.816Z,54.15
2023-02-11T13:40:40.211Z,55.97
2023-02-11T13:45:45.211Z,56.91
2023-02-11T13:50:51.875Z,57.87
2023-02-11T13:56:07.955Z,58.32
2023-02-11T14:01:10.086Z,59.12
2023-02-11T14:06:32.441Z,60.49
2023-02-11T14:11:35.329Z,61.42
2023-02-11T14:17:02.713Z,60.92
2023-02-11T14:22:12.028Z,61.45
2023-02-11T14:27:24.048Z,62.13
2023-02-11T14:33:02.970Z,60.82
2023-02-11T14:38:31.885Z,61.19
2023-02-11T14:43:46.995Z,61.94
2023-02-11T14:48:52.404Z,62.57
2023-02-11T14:54:17.231Z,62.33
2023-02-11T14:59:21.707Z,62.50
2023-02-11T15:04:32.950Z,62.78
2023-02-11T15:09:43.153Z,62.81
2023-02-11T15:14:51.074Z,64.47
2023-02-11T15:19:56.980Z,63.73
2023-02-11T15:25:04.201Z,63.82
2023-02-11T15:30:23.830Z,63.43
2023-02-11T15:35:35.251Z,64.64
2023-02-11T15:40:37.831Z,65.00
2023-02-11T15:45:43.731Z,64.55
2023-02-11T15:50:56.049Z,65.54
2023-02-11T15:56:01.450Z,66.00
2023-02-11T16:01:03.880Z,65.58
2023-02-11T16:06:15.896Z,66.14
2023-02-11T16:11:36.270Z,66.30
2023-02-11T16:16:38.443Z,66.64
2023-02-11T16:21:45.434Z,66.88
2023-02-11T16:26:50.784Z,66.81
2023-02-11T16:31:55.168Z,67.41
2023-02-11T16:36:57.256Z,67.74
2023-02-11T16:41:59.811Z,67.64
2023-02-11T16:47:03.768Z,67.54
2023-02-11T16:52:08.566Z,68.01
2023-02-11T16:57:22.719Z,68.65
2023-02-11T17:02:31.327Z,69.17
2023-02-11T17:07:33.727Z,68.15
2023-02-11T17:12:35.712Z,69.37
2023-02-11T17:17:37.905Z,69.58
2023-02-11T17:22:40.267Z,69.33
2023-02-11T17:27:42.377Z,69.61
2023-02-11T17:32:44.549Z,70.35
2023-02-11T17:37:46.636Z,70.10
2023-02-11T17:42:48.714Z,70.83
2023-02-11T17:47:50.745Z,71.43
2023-02-11T17:52:52.818Z,71.44
2023-02-11T17:57:55.625Z,71.47
2023-02-11T18:03:06.419Z,71.75
2023-02-11T18:08:08.625Z,71.49
2023-02-11T18:13:10.657Z,72.48
2023-02-11T18:18:12.780Z,72.14
2023-02-11T18:23:14.841Z,71.49
2023-02-11T18:28:16.906Z,71.83
2023-02-11T18:33:18.910Z,71.60
2023-02-11T18:38:22.405Z,71.82
2023-02-11T18:43:24.748Z,71.85
2023-02-11T18:48:27.565Z,71.93
2023-02-11T18:53:29.618Z,71.93
2023-02-11T18:58:31.629Z,71.81
2023-02-11T19:03:33.665Z,71.52
2023-02-11T19:08:35.862Z,70.97
2023-02-11T19:13:38.237Z,72.19
2023-02-11T19:18:40.525Z,71.35
2023-02-11T19:23:42.568Z,72.13
2023-02-11T19:28:45.000Z,71.78
2023-02-11T19:33:47.381Z,71.85
2023-02-11T19:38:49.410Z,71.92
2023-02-11T19:43:53.087Z,71.26
2023-02-11T19:48:55.631Z,71.56
2023-02-11T19:53:58.837Z,70.84
2023-02-11T19:59:02.930Z,71.87
2023-02-11T20:04:05.831Z,71.69
2023-02-11T20:09:11.927Z,71.49
2023-02-11T20:14:15.404Z,71.72
2023-02-11T20:19:20.196Z,71.32
2023-02-11T20:24:23.413Z,71.80
2023-02-11T20:29:26.062Z,71.31
2023-02-11T20:34:28.175Z,71.66
2023-02-11T20:39:30.273Z,71.34
2023-02-11T20:44:32.320Z,71.51
2023-02-11T20:49:34.327Z,70.80
2023-02-11T20:54:36.323Z,71.45
2023-02-11T20:59:38.480Z,71.52
2023-02-11T21:04:40.646Z,71.16
2023-02-11T21:09:42.781Z,71.16
2023-02-11T21:14:44.817Z,71.12
2023-02-11T21:19:47.007Z,71.27
2023-02-11T21:24:49.204Z,71.42
2023-02-11T21:29:54.548Z,71.19
2023-02-11T21:34:56.963Z,71.20
2023-02-11T21:39:59.064Z,71.58
2023-02-11T21:45:01.140Z,71.34
2023-02-11T21:50:03.815Z,71.60
2023-02-11T21:55:06.697Z,71.42
2023-02-11T22:00:09.805Z,71.31
2023-02-11T22:05:11.871Z,71.48
2023-02-11T22:10:14.439Z,71.40
2023-02-11T22:15:16.720Z,71.26
2023-02-11T22:20:18.900Z,71.37
2023-02-11T22:25:21.001Z,71.33
2023-02-11T22:30:23.053Z,71.27
2023-02-11T22:35:25.143Z,71.40
2023-02-11T22:40:27.184Z,71.93
2023-02-11T22:45:29.306Z,71.49
2023-02-11T22:50:31.503Z,71.32
2023-02-11T22:55:38.182Z,71.79
2023-02-11T23:00:41.554Z,71.70
2023-02-11T23:05:43.674Z,71.44
2023-02-11T23:10:46.461Z,70.87
2023-02-11T23:15:48.514Z,70.83
2023-02-11T23:20:50.618Z,70.98
2023-02-11T23:25:52.898Z,71.12
2023-02-11T23:30:55.667Z,71.16
2023-02-11T23:35:57.717Z,71.56
2023-02-11T23:40:59.757Z,72.24
2023-02-11T23:46:01.909Z,71.80
2023-02-11T23:51:04.517Z,71.94
2023-02-11T23:56:13.530Z,72.37
